sensor_id;sensor_type;location;lat;lon;timestamp;temperature;humidity
17992;DHT22;9121;50.926;5.340;2023-01-15T00:01:43;8.00;99.90
17992;DHT22;9121;50.926;5.340;2023-01-15T00:04:11;8.00;99.90
17992;DHT22;9121;50.926;5.340;2023-01-15T00:06:39;8.10;99.90
17992;DHT22;9121;50.926;5.340;2023-01-15T00:09:10;8.10;99.90
17992;DHT22;9121;50.926;5.340;2023-01-15T00:11:39;8.20;99.90
17992;DHT22;9121;50.926;5.340;2023-01-15T00:14:06;8.10;99.90
17992;DHT22;9121;50.926;5.340;2023-01-15T00:16:32;8.10;99.90
17992;DHT22;9121;50.926;5.340;2023-01-15T00:19:01;8.20;99.90
17992;DHT22;9121;50.926;5.340;2023-01-15T00:21:29;8.10;99.90
17992;DHT22;9121;50.926;5.340;2023-01-15T00:23:56;8.20;99.90
17992;DHT22;9121;50.926;5.340;2023-01-15T00:26:42;8.20;99.90
17992;DHT22;9121;50.926;5.340;2023-01-15T00:29:27;8.20;99.90
17992;DHT22;9121;50.926;5.340;2023-01-15T00:31:56;8.20;99.90
17992;DHT22;9121;50.926;5.340;2023-01-15T00:34:26;8.20;99.90
17992;DHT22;9121;50.926;5.340;2023-01-15T00:36:53;8.20;99.90
17992;DHT22;9121;50.926;5.340;2023-01-15T00:39:20;8.20;99.90
17992;DHT22;9121;50.926;5.340;2023-01-15T00:41:48;8.10;99.90
17992;DHT22;9121;50.926;5.340;2023-01-15T00:44:15;8.20;99.90
17992;DHT22;9121;50.926;5.340;2023-01-15T00:46:42;8.20;99.90
17992;DHT22;9121;50.926;5.340;2023-01-15T00:49:09;8.20;99.90
17992;DHT22;9121;50.926;5.340;2023-01-15T00:51:38;8.10;99.90
17992;DHT22;9121;50.926;5.340;2023-01-15T00:54:05;8.10;99.90
17992;DHT22;9121;50.926;5.340;2023-01-15T00:56:32;8.10;99.90
17992;DHT22;9121;50.926;5.340;2023-01-15T00:59:00;8.10;99.90
17992;DHT22;9121;50.926;5.340;2023-01-15T01:01:27;8.10;99.90
17992;DHT22;9121;50.926;5.340;2023-01-15T01:03:54;8.10;99.90
17992;DHT22;9121;50.926;5.340;2023-01-15T01:06:21;8.10;99.90
17992;DHT22;9121;50.926;5.340;2023-01-15T01:08:49;8.10;99.90
17992;DHT22;9121;50.926;5.340;2023-01-15T01:11:21;8.10;99.90
17992;DHT22;9121;50.926;5.340;2023-01-15T01:13:51;8.10;99.90
17992;DHT22;9121;50.926;5.340;2023-01-15T01:16:21;8.10;99.90
17992;DHT22;9121;50.926;5.340;2023-01-15T01:18:49;8.10;99.90
17992;DHT22;9121;50.926;5.340;2023-01-15T01:21:16;8.10;99.90
17992;DHT22;9121;50.926;5.340;2023-01-15T01:23:43;8.10;99.90
17992;DHT22;9121;50.926;5.340;2023-01-15T01:26:12;8.10;99.90
17992;DHT22;9121;50.926;5.340;2023-01-15T01:28:39;8.10;99.90
17992;DHT22;9121;50.926;5.340;2023-01-15T01:31:07;8.10;99.90
17992;DHT22;9121;50.926;5.340;2023-01-15T01:33:34;8.20;99.90
17992;DHT22;9121;50.926;5.340;2023-01-15T01:36:01;8.20;99.90
17992;DHT22;9121;50.926;5.340;2023-01-15T01:38:28;8.20;99.90
17992;DHT22;9121;50.926;5.340;2023-01-15T01:40:55;8.10;99.90
17992;DHT22;9121;50.926;5.340;2023-01-15T01:43:26;8.10;99.90
17992;DHT22;9121;50.926;5.340;2023-01-15T01:45:53;8.20;99.90
17992;DHT22;9121;50.926;5.340;2023-01-15T01:48:25;8.20;99.90
17992;DHT22;9121;50.926;5.340;2023-01-15T01:50:56;8.20;99.90
17992;DHT22;9121;50.926;5.340;2023-01-15T01:53:27;8.20;99.90
17992;DHT22;9121;50.926;5.340;2023-01-15T01:55:56;8.30;99.90
17992;DHT22;9121;50.926;5.340;2023-01-15T01:58:26;8.30;99.90
17992;DHT22;9121;50.926;5.340;2023-01-15T02:00:54;8.30;99.90
17992;DHT22;9121;50.926;5.340;2023-01-15T02:03:24;8.40;99.90
17992;DHT22;9121;50.926;5.340;2023-01-15T02:05:54;8.40;99.90
17992;DHT22;9121;50.926;5.340;2023-01-15T02:08:22;8.30;99.90
17992;DHT22;9121;50.926;5.340;2023-01-15T02:10:52;8.30;99.90
17992;DHT22;9121;50.926;5.340;2023-01-15T02:13:26;8.30;99.90
17992;DHT22;9121;50.926;5.340;2023-01-15T02:15:59;8.30;99.90
17992;DHT22;9121;50.926;5.340;2023-01-15T02:18:33;8.30;99.90
17992;DHT22;9121;50.926;5.340;2023-01-15T02:21:06;8.30;99.90
17992;DHT22;9121;50.926;5.340;2023-01-15T02:24:00;8.30;99.90
17992;DHT22;9121;50.926;5.340;2023-01-15T02:26:57;8.30;99.90
17992;DHT22;9121;50.926;5.340;2023-01-15T02:29:31;8.20;99.90
17992;DHT22;9121;50.926;5.340;2023-01-15T02:32:03;8.20;99.90
17992;DHT22;9121;50.926;5.340;2023-01-15T02:34:33;8.20;99.90
17992;DHT22;9121;50.926;5.340;2023-01-15T02:37:07;8.20;99.90
17992;DHT22;9121;50.926;5.340;2023-01-15T02:39:38;8.20;99.90
17992;DHT22;9121;50.926;5.340;2023-01-15T02:42:09;8.20;99.90
17992;DHT22;9121;50.926;5.340;2023-01-15T02:44:40;8.30;99.90
17992;DHT22;9121;50.926;5.340;2023-01-15T02:47:09;8.20;99.90
17992;DHT22;9121;50.926;5.340;2023-01-15T02:49:38;8.10;99.90
17992;DHT22;9121;50.926;5.340;2023-01-15T02:52:12;8.10;99.90
17992;DHT22;9121;50.926;5.340;2023-01-15T02:54:42;8.10;99.90
17992;DHT22;9121;50.926;5.340;2023-01-15T02:57:13;8.10;99.90
17992;DHT22;9121;50.926;5.340;2023-01-15T02:59:45;8.10;99.90
17992;DHT22;9121;50.926;5.340;2023-01-15T03:02:16;8.20;99.90
17992;DHT22;9121;50.926;5.340;2023-01-15T03:04:51;8.10;99.90
17992;DHT22;9121;50.926;5.340;2023-01-15T03:07:22;8.10;99.90
17992;DHT22;9121;50.926;5.340;2023-01-15T03:09:51;8.10;99.90
17992;DHT22;9121;50.926;5.340;2023-01-15T03:12:24;8.00;99.90
17992;DHT22;9121;50.926;5.340;2023-01-15T03:14:59;8.10;99.90
17992;DHT22;9121;50.926;5.340;2023-01-15T03:17:34;8.10;99.90
17992;DHT22;9121;50.926;5.340;2023-01-15T03:20:05;8.10;99.90
17992;DHT22;9121;50.926;5.340;2023-01-15T03:22:36;8.00;99.90
17992;DHT22;9121;50.926;5.340;2023-01-15T03:25:06;8.10;99.90
17992;DHT22;9121;50.926;5.340;2023-01-15T03:27:36;8.10;99.90
17992;DHT22;9121;50.926;5.340;2023-01-15T03:30:05;8.10;99.90
17992;DHT22;9121;50.926;5.340;2023-01-15T03:32:33;8.10;99.90
17992;DHT22;9121;50.926;5.340;2023-01-15T03:34:59;8.00;99.90
17992;DHT22;9121;50.926;5.340;2023-01-15T03:37:29;8.00;99.90
17992;DHT22;9121;50.926;5.340;2023-01-15T03:39:58;7.90;99.90
17992;DHT22;9121;50.926;5.340;2023-01-15T03:42:34;7.90;99.90
17992;DHT22;9121;50.926;5.340;2023-01-15T03:45:11;7.90;99.90
17992;DHT22;9121;50.926;5.340;2023-01-15T03:47:47;7.80;99.90
17992;DHT22;9121;50.926;5.340;2023-01-15T03:50:23;7.90;99.90
17992;DHT22;9121;50.926;5.340;2023-01-15T03:52:56;7.90;99.90
17992;DHT22;9121;50.926;5.340;2023-01-15T03:55:34;7.90;99.90
17992;DHT22;9121;50.926;5.340;2023-01-15T03:58:08;7.90;99.90
17992;DHT22;9121;50.926;5.340;2023-01-15T04:00:41;7.90;99.90
17992;DHT22;9121;50.926;5.340;2023-01-15T04:03:10;7.80;99.90
17992;DHT22;9121;50.926;5.340;2023-01-15T04:05:39;7.80;99.90
17992;DHT22;9121;50.926;5.340;2023-01-15T04:08:06;7.90;99.90
17992;DHT22;9121;50.926;5.340;2023-01-15T04:10:34;7.90;99.90
17992;DHT22;9121;50.926;5.340;2023-01-15T04:13:01;7.90;99.90
17992;DHT22;9121;50.926;5.340;2023-01-15T04:15:28;7.90;99.90
17992;DHT22;9121;50.926;5.340;2023-01-15T04:17:56;7.90;99.90
17992;DHT22;9121;50.926;5.340;2023-01-15T04:20:23;7.90;99.90
17992;DHT22;9121;50.926;5.340;2023-01-15T04:22:50;7.80;99.90
17992;DHT22;9121;50.926;5.340;2023-01-15T04:25:17;7.80;99.90
17992;DHT22;9121;50.926;5.340;2023-01-15T04:27:44;7.80;99.90
17992;DHT22;9121;50.926;5.340;2023-01-15T04:30:11;7.80;99.90
17992;DHT22;9121;50.926;5.340;2023-01-15T04:32:42;7.80;99.90
17992;DHT22;9121;50.926;5.340;2023-01-15T04:35:10;7.80;99.90
17992;DHT22;9121;50.926;5.340;2023-01-15T04:37:37;7.80;99.90
17992;DHT22;9121;50.926;5.340;2023-01-15T04:40:05;7.80;99.90
17992;DHT22;9121;50.926;5.340;2023-01-15T04:42:32;7.80;99.90
17992;DHT22;9121;50.926;5.340;2023-01-15T04:45:16;7.80;99.90
17992;DHT22;9121;50.926;5.340;2023-01-15T04:47:43;7.80;99.90
17992;DHT22;9121;50.926;5.340;2023-01-15T04:50:11;7.80;99.90
17992;DHT22;9121;50.926;5.340;2023-01-15T04:52:38;7.80;99.90
17992;DHT22;9121;50.926;5.340;2023-01-15T04:55:06;7.70;99.90
17992;DHT22;9121;50.926;5.340;2023-01-15T04:57:33;7.70;99.90
17992;DHT22;9121;50.926;5.340;2023-01-15T05:00:01;7.70;99.90
17992;DHT22;9121;50.926;5.340;2023-01-15T05:02:28;7.70;99.90
17992;DHT22;9121;50.926;5.340;2023-01-15T05:04:55;7.70;99.90
17992;DHT22;9121;50.926;5.340;2023-01-15T05:07:23;7.70;99.90
17992;DHT22;9121;50.926;5.340;2023-01-15T05:09:50;7.60;99.90
17992;DHT22;9121;50.926;5.340;2023-01-15T05:12:19;7.60;99.90
17992;DHT22;9121;50.926;5.340;2023-01-15T05:14:46;7.60;99.90
17992;DHT22;9121;50.926;5.340;2023-01-15T05:17:13;7.60;99.90
17992;DHT22;9121;50.926;5.340;2023-01-15T05:19:40;7.60;99.90
17992;DHT22;9121;50.926;5.340;2023-01-15T05:22:07;7.60;99.90
17992;DHT22;9121;50.926;5.340;2023-01-15T05:24:35;7.60;99.90
17992;DHT22;9121;50.926;5.340;2023-01-15T05:27:03;7.60;99.90
17992;DHT22;9121;50.926;5.340;2023-01-15T05:29:31;7.60;99.90
17992;DHT22;9121;50.926;5.340;2023-01-15T05:31:58;7.60;99.90
17992;DHT22;9121;50.926;5.340;2023-01-15T05:34:25;7.60;99.90
17992;DHT22;9121;50.926;5.340;2023-01-15T05:36:52;7.60;99.90
17992;DHT22;9121;50.926;5.340;2023-01-15T05:39:19;7.50;99.90
17992;DHT22;9121;50.926;5.340;2023-01-15T05:41:47;7.50;99.90
17992;DHT22;9121;50.926;5.340;2023-01-15T05:44:16;7.50;99.90
17992;DHT22;9121;50.926;5.340;2023-01-15T05:46:44;7.50;99.90
17992;DHT22;9121;50.926;5.340;2023-01-15T05:49:13;7.50;99.90
17992;DHT22;9121;50.926;5.340;2023-01-15T05:51:41;7.40;99.90
17992;DHT22;9121;50.926;5.340;2023-01-15T05:54:11;7.40;99.90
17992;DHT22;9121;50.926;5.340;2023-01-15T05:56:39;7.50;99.90
17992;DHT22;9121;50.926;5.340;2023-01-15T05:59:09;7.50;99.90
17992;DHT22;9121;50.926;5.340;2023-01-15T06:01:36;7.40;99.90
17992;DHT22;9121;50.926;5.340;2023-01-15T06:04:04;7.40;99.90
17992;DHT22;9121;50.926;5.340;2023-01-15T06:06:32;7.40;99.90
17992;DHT22;9121;50.926;5.340;2023-01-15T06:09:00;7.40;99.90
17992;DHT22;9121;50.926;5.340;2023-01-15T06:11:27;7.40;99.90
17992;DHT22;9121;50.926;5.340;2023-01-15T06:13:54;7.40;99.90
17992;DHT22;9121;50.926;5.340;2023-01-15T06:16:23;7.40;99.90
17992;DHT22;9121;50.926;5.340;2023-01-15T06:18:50;7.40;99.90
17992;DHT22;9121;50.926;5.340;2023-01-15T06:21:17;7.40;99.90
17992;DHT22;9121;50.926;5.340;2023-01-15T06:23:44;7.40;99.90
17992;DHT22;9121;50.926;5.340;2023-01-15T06:26:13;7.40;99.90
17992;DHT22;9121;50.926;5.340;2023-01-15T06:28:40;7.30;99.90
17992;DHT22;9121;50.926;5.340;2023-01-15T06:31:09;7.30;99.90
17992;DHT22;9121;50.926;5.340;2023-01-15T06:33:38;7.20;99.90
17992;DHT22;9121;50.926;5.340;2023-01-15T06:36:05;7.20;99.90
17992;DHT22;9121;50.926;5.340;2023-01-15T06:38:33;7.20;99.90
17992;DHT22;9121;50.926;5.340;2023-01-15T06:41:01;7.20;99.90
17992;DHT22;9121;50.926;5.340;2023-01-15T06:43:28;7.20;99.90
17992;DHT22;9121;50.926;5.340;2023-01-15T06:46:12;7.10;99.90
17992;DHT22;9121;50.926;5.340;2023-01-15T06:49:07;7.10;99.90
17992;DHT22;9121;50.926;5.340;2023-01-15T06:51:34;7.10;99.90
17992;DHT22;9121;50.926;5.340;2023-01-15T06:54:01;7.00;99.90
17992;DHT22;9121;50.926;5.340;2023-01-15T06:56:28;6.90;99.90
17992;DHT22;9121;50.926;5.340;2023-01-15T06:58:55;6.80;99.90
17992;DHT22;9121;50.926;5.340;2023-01-15T07:01:22;6.80;99.90
17992;DHT22;9121;50.926;5.340;2023-01-15T07:03:49;6.70;99.90
17992;DHT22;9121;50.926;5.340;2023-01-15T07:06:17;6.70;99.90
17992;DHT22;9121;50.926;5.340;2023-01-15T07:08:44;6.70;99.90
17992;DHT22;9121;50.926;5.340;2023-01-15T07:11:11;6.70;99.90
17992;DHT22;9121;50.926;5.340;2023-01-15T07:13:39;6.70;99.90
17992;DHT22;9121;50.926;5.340;2023-01-15T07:16:06;6.60;99.90
17992;DHT22;9121;50.926;5.340;2023-01-15T07:18:51;6.60;99.90
17992;DHT22;9121;50.926;5.340;2023-01-15T07:21:20;6.60;99.90
17992;DHT22;9121;50.926;5.340;2023-01-15T07:23:47;6.60;99.90
17992;DHT22;9121;50.926;5.340;2023-01-15T07:26:14;6.60;99.90
17992;DHT22;9121;50.926;5.340;2023-01-15T07:28:41;6.70;99.90
17992;DHT22;9121;50.926;5.340;2023-01-15T07:31:08;6.60;99.90
17992;DHT22;9121;50.926;5.340;2023-01-15T07:33:35;6.60;99.90
17992;DHT22;9121;50.926;5.340;2023-01-15T07:36:03;6.60;99.90
17992;DHT22;9121;50.926;5.340;2023-01-15T07:38:31;6.60;99.90
17992;DHT22;9121;50.926;5.340;2023-01-15T07:40:59;6.60;99.90
17992;DHT22;9121;50.926;5.340;2023-01-15T07:43:43;6.60;99.90
17992;DHT22;9121;50.926;5.340;2023-01-15T07:46:28;6.50;99.90
17992;DHT22;9121;50.926;5.340;2023-01-15T07:49:13;6.50;99.90
17992;DHT22;9121;50.926;5.340;2023-01-15T07:51:57;6.50;99.90
17992;DHT22;9121;50.926;5.340;2023-01-15T07:54:26;6.50;99.90
17992;DHT22;9121;50.926;5.340;2023-01-15T07:56:54;6.40;99.90
17992;DHT22;9121;50.926;5.340;2023-01-15T07:59:22;6.40;99.90
17992;DHT22;9121;50.926;5.340;2023-01-15T08:01:49;6.40;99.90
17992;DHT22;9121;50.926;5.340;2023-01-15T08:04:16;6.40;99.90
17992;DHT22;9121;50.926;5.340;2023-01-15T08:06:43;6.50;99.90
17992;DHT22;9121;50.926;5.340;2023-01-15T08:09:10;6.50;99.90
17992;DHT22;9121;50.926;5.340;2023-01-15T08:11:39;6.60;99.90
17992;DHT22;9121;50.926;5.340;2023-01-15T08:14:23;6.50;99.90
17992;DHT22;9121;50.926;5.340;2023-01-15T08:17:07;6.50;99.90
17992;DHT22;9121;50.926;5.340;2023-01-15T08:19:34;6.50;99.90
17992;DHT22;9121;50.926;5.340;2023-01-15T08:22:01;6.50;99.90
17992;DHT22;9121;50.926;5.340;2023-01-15T08:24:28;6.50;99.90
17992;DHT22;9121;50.926;5.340;2023-01-15T08:26:57;6.50;99.90
17992;DHT22;9121;50.926;5.340;2023-01-15T08:29:24;6.40;99.90
17992;DHT22;9121;50.926;5.340;2023-01-15T08:31:51;6.50;99.90
17992;DHT22;9121;50.926;5.340;2023-01-15T08:34:18;6.40;99.90
17992;DHT22;9121;50.926;5.340;2023-01-15T08:36:45;6.40;99.90
17992;DHT22;9121;50.926;5.340;2023-01-15T08:39:14;6.40;99.90
17992;DHT22;9121;50.926;5.340;2023-01-15T08:41:41;6.40;99.90
17992;DHT22;9121;50.926;5.340;2023-01-15T08:44:10;6.40;99.90
17992;DHT22;9121;50.926;5.340;2023-01-15T08:46:37;6.30;99.90
17992;DHT22;9121;50.926;5.340;2023-01-15T08:49:04;6.40;99.90
17992;DHT22;9121;50.926;5.340;2023-01-15T08:51:31;6.40;99.90
17992;DHT22;9121;50.926;5.340;2023-01-15T08:53:57;6.40;99.90
17992;DHT22;9121;50.926;5.340;2023-01-15T08:56:24;6.40;99.90
17992;DHT22;9121;50.926;5.340;2023-01-15T08:58:51;6.50;99.90
17992;DHT22;9121;50.926;5.340;2023-01-15T09:01:20;6.40;99.90
17992;DHT22;9121;50.926;5.340;2023-01-15T09:03:47;6.50;99.90
17992;DHT22;9121;50.926;5.340;2023-01-15T09:06:14;6.50;99.90
17992;DHT22;9121;50.926;5.340;2023-01-15T09:08:41;6.60;99.90
17992;DHT22;9121;50.926;5.340;2023-01-15T09:11:08;6.60;99.90
17992;DHT22;9121;50.926;5.340;2023-01-15T09:13:37;6.60;99.90
17992;DHT22;9121;50.926;5.340;2023-01-15T09:16:06;6.60;99.90
17992;DHT22;9121;50.926;5.340;2023-01-15T09:18:36;6.70;99.90
17992;DHT22;9121;50.926;5.340;2023-01-15T09:21:04;6.70;99.90
17992;DHT22;9121;50.926;5.340;2023-01-15T09:23:31;6.80;99.90
17992;DHT22;9121;50.926;5.340;2023-01-15T09:25:59;6.80;99.90
17992;DHT22;9121;50.926;5.340;2023-01-15T09:28:27;6.70;99.90
17992;DHT22;9121;50.926;5.340;2023-01-15T09:30:54;6.80;99.90
17992;DHT22;9121;50.926;5.340;2023-01-15T09:33:21;6.80;99.90
17992;DHT22;9121;50.926;5.340;2023-01-15T09:35:50;6.90;99.90
17992;DHT22;9121;50.926;5.340;2023-01-15T09:38:19;6.90;99.90
17992;DHT22;9121;50.926;5.340;2023-01-15T09:40:49;7.00;99.90
17992;DHT22;9121;50.926;5.340;2023-01-15T09:43:28;7.00;99.90
17992;DHT22;9121;50.926;5.340;2023-01-15T09:46:07;7.00;99.90
17992;DHT22;9121;50.926;5.340;2023-01-15T09:48:46;7.00;99.90
17992;DHT22;9121;50.926;5.340;2023-01-15T09:51:22;7.00;99.90
17992;DHT22;9121;50.926;5.340;2023-01-15T09:54:06;7.00;99.90
17992;DHT22;9121;50.926;5.340;2023-01-15T09:56:37;7.00;99.90
17992;DHT22;9121;50.926;5.340;2023-01-15T09:59:15;7.00;99.90
17992;DHT22;9121;50.926;5.340;2023-01-15T10:01:44;7.10;99.90
17992;DHT22;9121;50.926;5.340;2023-01-15T10:04:16;7.10;99.90
17992;DHT22;9121;50.926;5.340;2023-01-15T10:06:55;7.20;99.90
17992;DHT22;9121;50.926;5.340;2023-01-15T10:09:29;7.20;99.90
17992;DHT22;9121;50.926;5.340;2023-01-15T10:12:03;7.20;99.90
17992;DHT22;9121;50.926;5.340;2023-01-15T10:15:13;7.30;99.90
17992;DHT22;9121;50.926;5.340;2023-01-15T10:17:42;7.20;99.90
17992;DHT22;9121;50.926;5.340;2023-01-15T10:20:21;7.30;99.90
17992;DHT22;9121;50.926;5.340;2023-01-15T10:23:07;7.30;99.90
17992;DHT22;9121;50.926;5.340;2023-01-15T10:25:39;7.30;99.90
17992;DHT22;9121;50.926;5.340;2023-01-15T10:28:16;7.30;99.90
17992;DHT22;9121;50.926;5.340;2023-01-15T10:30:48;7.50;99.90
17992;DHT22;9121;50.926;5.340;2023-01-15T10:33:45;7.50;99.90
17992;DHT22;9121;50.926;5.340;2023-01-15T10:36:21;7.50;99.90
17992;DHT22;9121;50.926;5.340;2023-01-15T10:38:57;7.40;99.90
17992;DHT22;9121;50.926;5.340;2023-01-15T10:41:34;7.40;99.90
17992;DHT22;9121;50.926;5.340;2023-01-15T10:44:09;7.40;99.90
17992;DHT22;9121;50.926;5.340;2023-01-15T10:46:38;7.30;99.90
17992;DHT22;9121;50.926;5.340;2023-01-15T10:49:12;7.30;99.90
17992;DHT22;9121;50.926;5.340;2023-01-15T10:51:42;7.20;99.90
17992;DHT22;9121;50.926;5.340;2023-01-15T10:54:17;7.20;99.90
17992;DHT22;9121;50.926;5.340;2023-01-15T10:56:52;7.20;99.90
17992;DHT22;9121;50.926;5.340;2023-01-15T10:59:34;7.40;99.90
17992;DHT22;9121;50.926;5.340;2023-01-15T11:02:15;7.50;99.90
17992;DHT22;9121;50.926;5.340;2023-01-15T11:04:45;7.40;99.90
17992;DHT22;9121;50.926;5.340;2023-01-15T11:07:12;7.40;99.90
17992;DHT22;9121;50.926;5.340;2023-01-15T11:09:41;7.30;99.90
17992;DHT22;9121;50.926;5.340;2023-01-15T11:12:18;7.20;99.90
17992;DHT22;9121;50.926;5.340;2023-01-15T11:15:17;7.10;99.90
17992;DHT22;9121;50.926;5.340;2023-01-15T11:18:11;7.00;99.90
17992;DHT22;9121;50.926;5.340;2023-01-15T11:20:57;7.00;99.90
17992;DHT22;9121;50.926;5.340;2023-01-15T11:23:24;7.00;99.90
17992;DHT22;9121;50.926;5.340;2023-01-15T11:25:54;7.10;99.90
17992;DHT22;9121;50.926;5.340;2023-01-15T11:28:34;7.10;99.90
17992;DHT22;9121;50.926;5.340;2023-01-15T11:31:05;7.20;99.90
17992;DHT22;9121;50.926;5.340;2023-01-15T11:33:32;7.20;99.90
17992;DHT22;9121;50.926;5.340;2023-01-15T11:36:01;7.30;99.90
17992;DHT22;9121;50.926;5.340;2023-01-15T11:38:30;7.40;99.90
17992;DHT22;9121;50.926;5.340;2023-01-15T11:41:00;7.50;99.90
17992;DHT22;9121;50.926;5.340;2023-01-15T11:43:30;7.50;99.90
17992;DHT22;9121;50.926;5.340;2023-01-15T11:46:27;7.60;99.90
17992;DHT22;9121;50.926;5.340;2023-01-15T11:49:15;7.60;99.90
17992;DHT22;9121;50.926;5.340;2023-01-15T11:52:01;7.70;99.90
17992;DHT22;9121;50.926;5.340;2023-01-15T11:54:30;7.90;99.90
17992;DHT22;9121;50.926;5.340;2023-01-15T11:56:59;8.00;99.90
17992;DHT22;9121;50.926;5.340;2023-01-15T11:59:27;8.00;99.90
17992;DHT22;9121;50.926;5.340;2023-01-15T12:01:55;8.00;99.90
17992;DHT22;9121;50.926;5.340;2023-01-15T12:04:36;8.00;99.90
17992;DHT22;9121;50.926;5.340;2023-01-15T12:07:05;8.10;99.90
17992;DHT22;9121;50.926;5.340;2023-01-15T12:09:56;8.10;99.90
17992;DHT22;9121;50.926;5.340;2023-01-15T12:12:37;8.20;99.90
17992;DHT22;9121;50.926;5.340;2023-01-15T12:15:19;8.30;99.90
17992;DHT22;9121;50.926;5.340;2023-01-15T12:18:12;8.30;99.90
17992;DHT22;9121;50.926;5.340;2023-01-15T12:20:53;8.40;99.90
17992;DHT22;9121;50.926;5.340;2023-01-15T12:23:41;8.40;99.90
17992;DHT22;9121;50.926;5.340;2023-01-15T12:26:15;8.30;99.90
17992;DHT22;9121;50.926;5.340;2023-01-15T12:28:53;8.40;99.90
17992;DHT22;9121;50.926;5.340;2023-01-15T12:31:24;8.60;99.90
17992;DHT22;9121;50.926;5.340;2023-01-15T12:33:56;8.80;99.90
17992;DHT22;9121;50.926;5.340;2023-01-15T12:36:28;8.90;99.90
17992;DHT22;9121;50.926;5.340;2023-01-15T12:38:59;8.80;99.90
17992;DHT22;9121;50.926;5.340;2023-01-15T12:41:30;8.80;99.90
17992;DHT22;9121;50.926;5.340;2023-01-15T12:44:15;8.70;99.90
17992;DHT22;9121;50.926;5.340;2023-01-15T12:47:05;8.40;99.90
17992;DHT22;9121;50.926;5.340;2023-01-15T12:49:39;8.30;99.90
17992;DHT22;9121;50.926;5.340;2023-01-15T12:52:10;8.20;99.90
17992;DHT22;9121;50.926;5.340;2023-01-15T12:54:46;8.10;99.90
17992;DHT22;9121;50.926;5.340;2023-01-15T12:57:18;8.10;99.90
17992;DHT22;9121;50.926;5.340;2023-01-15T12:59:56;8.10;99.90
17992;DHT22;9121;50.926;5.340;2023-01-15T13:02:28;8.20;99.90
17992;DHT22;9121;50.926;5.340;2023-01-15T13:05:11;8.20;99.90
17992;DHT22;9121;50.926;5.340;2023-01-15T13:07:41;8.20;99.90
17992;DHT22;9121;50.926;5.340;2023-01-15T13:10:15;8.20;99.90
17992;DHT22;9121;50.926;5.340;2023-01-15T13:12:43;8.00;99.90
17992;DHT22;9121;50.926;5.340;2023-01-15T13:15:14;8.00;99.90
17992;DHT22;9121;50.926;5.340;2023-01-15T13:17:54;8.00;99.90
17992;DHT22;9121;50.926;5.340;2023-01-15T13:20:33;8.00;99.90
17992;DHT22;9121;50.926;5.340;2023-01-15T13:23:07;8.00;99.90
17992;DHT22;9121;50.926;5.340;2023-01-15T13:26:03;8.00;99.90
17992;DHT22;9121;50.926;5.340;2023-01-15T13:28:41;7.90;99.90
17992;DHT22;9121;50.926;5.340;2023-01-15T13:34:23;7.90;99.90
17992;DHT22;9121;50.926;5.340;2023-01-15T13:36:53;8.00;99.90
17992;DHT22;9121;50.926;5.340;2023-01-15T13:39:27;8.00;99.90
17992;DHT22;9121;50.926;5.340;2023-01-15T13:41:57;8.00;99.90
17992;DHT22;9121;50.926;5.340;2023-01-15T13:44:46;8.10;99.90
17992;DHT22;9121;50.926;5.340;2023-01-15T13:47:18;8.00;99.90
17992;DHT22;9121;50.926;5.340;2023-01-15T13:49:49;8.00;99.90
17992;DHT22;9121;50.926;5.340;2023-01-15T13:52:21;8.10;99.90
17992;DHT22;9121;50.926;5.340;2023-01-15T13:54:50;8.20;99.90
17992;DHT22;9121;50.926;5.340;2023-01-15T13:57:31;8.30;99.90
17992;DHT22;9121;50.926;5.340;2023-01-15T14:00:00;8.20;99.90
17992;DHT22;9121;50.926;5.340;2023-01-15T14:02:31;8.20;99.90
17992;DHT22;9121;50.926;5.340;2023-01-15T14:04:59;8.20;12.40
17992;DHT22;9121;50.926;5.340;2023-01-15T14:07:38;8.20;1.20
17992;DHT22;9121;50.926;5.340;2023-01-15T14:10:24;8.10;3.30
17992;DHT22;9121;50.926;5.340;2023-01-15T14:13:00;8.10;1.00
17992;DHT22;9121;50.926;5.340;2023-01-15T14:15:39;8.10;6.90
17992;DHT22;9121;50.926;5.340;2023-01-15T14:18:19;8.00;7.20
17992;DHT22;9121;50.926;5.340;2023-01-15T14:21:00;8.00;11.60
17992;DHT22;9121;50.926;5.340;2023-01-15T14:23:48;8.00;18.90
17992;DHT22;9121;50.926;5.340;2023-01-15T14:26:24;8.00;18.40
17992;DHT22;9121;50.926;5.340;2023-01-15T14:29:02;7.90;23.20
17992;DHT22;9121;50.926;5.340;2023-01-15T14:31:44;7.90;24.60
17992;DHT22;9121;50.926;5.340;2023-01-15T14:34:21;7.90;28.00
17992;DHT22;9121;50.926;5.340;2023-01-15T14:36:54;7.80;33.30
17992;DHT22;9121;50.926;5.340;2023-01-15T14:39:31;7.80;33.60
17992;DHT22;9121;50.926;5.340;2023-01-15T14:42:03;7.80;38.30
17992;DHT22;9121;50.926;5.340;2023-01-15T14:44:56;7.80;36.40
17992;DHT22;9121;50.926;5.340;2023-01-15T14:47:27;7.70;42.30
17992;DHT22;9121;50.926;5.340;2023-01-15T14:50:03;7.70;46.00
17992;DHT22;9121;50.926;5.340;2023-01-15T14:52:47;7.60;52.90
17992;DHT22;9121;50.926;5.340;2023-01-15T14:55:16;7.70;55.90
17992;DHT22;9121;50.926;5.340;2023-01-15T14:57:50;7.70;59.60
17992;DHT22;9121;50.926;5.340;2023-01-15T15:00:21;7.60;69.80
17992;DHT22;9121;50.926;5.340;2023-01-15T15:02:50;7.60;76.50
17992;DHT22;9121;50.926;5.340;2023-01-15T15:05:20;7.60;78.20
17992;DHT22;9121;50.926;5.340;2023-01-15T15:07:49;7.50;76.10
17992;DHT22;9121;50.926;5.340;2023-01-15T15:10:23;7.50;74.30
17992;DHT22;9121;50.926;5.340;2023-01-15T15:12:57;7.60;74.80
17992;DHT22;9121;50.926;5.340;2023-01-15T15:15:36;7.60;67.20
17992;DHT22;9121;50.926;5.340;2023-01-15T15:18:12;7.60;61.90
17992;DHT22;9121;50.926;5.340;2023-01-15T15:20:50;7.50;60.80
17992;DHT22;9121;50.926;5.340;2023-01-15T15:23:25;7.60;59.90
17992;DHT22;9121;50.926;5.340;2023-01-15T15:25:58;7.60;54.20
17992;DHT22;9121;50.926;5.340;2023-01-15T15:28:26;7.60;55.90
17992;DHT22;9121;50.926;5.340;2023-01-15T15:30:53;7.60;50.50
17992;DHT22;9121;50.926;5.340;2023-01-15T15:33:24;7.70;47.50
17992;DHT22;9121;50.926;5.340;2023-01-15T15:35:55;7.70;49.70
17992;DHT22;9121;50.926;5.340;2023-01-15T15:38:24;7.70;47.20
17992;DHT22;9121;50.926;5.340;2023-01-15T15:40:53;7.70;50.50
17992;DHT22;9121;50.926;5.340;2023-01-15T15:43:25;7.60;48.40
17992;DHT22;9121;50.926;5.340;2023-01-15T15:46:25;7.70;49.50
17992;DHT22;9121;50.926;5.340;2023-01-15T15:49:10;7.70;47.10
17992;DHT22;9121;50.926;5.340;2023-01-15T15:51:44;7.70;48.80
17992;DHT22;9121;50.926;5.340;2023-01-15T15:54:15;7.70;49.80
17992;DHT22;9121;50.926;5.340;2023-01-15T15:56:55;7.70;46.50
17992;DHT22;9121;50.926;5.340;2023-01-15T15:59:29;7.70;50.20
17992;DHT22;9121;50.926;5.340;2023-01-15T16:01:58;7.80;50.90
17992;DHT22;9121;50.926;5.340;2023-01-15T16:04:26;7.70;50.80
17992;DHT22;9121;50.926;5.340;2023-01-15T16:06:55;7.60;48.70
17992;DHT22;9121;50.926;5.340;2023-01-15T16:09:23;7.60;53.80
17992;DHT22;9121;50.926;5.340;2023-01-15T16:11:51;7.60;54.50
17992;DHT22;9121;50.926;5.340;2023-01-15T16:14:19;7.60;55.00
17992;DHT22;9121;50.926;5.340;2023-01-15T16:16:49;7.50;58.10
17992;DHT22;9121;50.926;5.340;2023-01-15T16:19:20;7.50;61.40
17992;DHT22;9121;50.926;5.340;2023-01-15T16:21:50;7.50;61.80
17992;DHT22;9121;50.926;5.340;2023-01-15T16:24:24;7.50;66.50
17992;DHT22;9121;50.926;5.340;2023-01-15T16:26:55;7.40;63.70
17992;DHT22;9121;50.926;5.340;2023-01-15T16:29:25;7.40;64.00
17992;DHT22;9121;50.926;5.340;2023-01-15T16:31:53;7.40;66.00
17992;DHT22;9121;50.926;5.340;2023-01-15T16:34:25;7.40;67.10
17992;DHT22;9121;50.926;5.340;2023-01-15T16:36:53;7.30;67.10